sensor_id;sensor_type;location;lat;lon;timestamp;P1;durP1;ratioP1;P2;durP2;ratioP2
16189;SDS011;41754;51.498;7.540;2022-12-29T00:02:18;0.70;;;0.70;;
16189;SDS011;41754;51.498;7.540;2022-12-29T00:04:46;2.30;;;1.10;;
16189;SDS011;41754;51.498;7.540;2022-12-29T00:07:16;0.65;;;0.65;;
16189;SDS011;41754;51.498;7.540;2022-12-29T00:09:44;1.38;;;1.00;;
16189;SDS011;41754;51.498;7.540;2022-12-29T00:12:12;1.23;;;0.47;;
16189;SDS011;41754;51.498;7.540;2022-12-29T00:14:41;1.65;;;0.77;;
16189;SDS011;41754;51.498;7.540;2022-12-29T00:17:27;0.55;;;0.55;;
16189;SDS011;41754;51.498;7.540;2022-12-29T00:19:55;0.80;;;0.50;;
16189;SDS011;41754;51.498;7.540;2022-12-29T00:22:40;0.68;;;0.65;;
16189;SDS011;41754;51.498;7.540;2022-12-29T00:25:26;0.60;;;0.55;;
16189;SDS011;41754;51.498;7.540;2022-12-29T00:28:11;1.27;;;0.40;;
16189;SDS011;41754;51.498;7.540;2022-12-29T00:30:59;1.13;;;0.55;;
16189;SDS011;41754;51.498;7.540;2022-12-29T00:33:45;0.60;;;0.60;;
16189;SDS011;41754;51.498;7.540;2022-12-29T00:36:31;0.45;;;0.40;;
16189;SDS011;41754;51.498;7.540;2022-12-29T00:39:01;0.32;;;0.32;;
16189;SDS011;41754;51.498;7.540;2022-12-29T00:41:48;0.75;;;0.50;;
16189;SDS011;41754;51.498;7.540;2022-12-29T00:44:38;1.05;;;0.50;;
16189;SDS011;41754;51.498;7.540;2022-12-29T00:47:09;0.52;;;0.45;;
16189;SDS011;41754;51.498;7.540;2022-12-29T00:49:37;0.30;;;0.30;;
16189;SDS011;41754;51.498;7.540;2022-12-29T00:52:05;0.50;;;0.40;;
16189;SDS011;41754;51.498;7.540;2022-12-29T00:54:35;0.60;;;0.60;;
16189;SDS011;41754;51.498;7.540;2022-12-29T00:57:05;0.40;;;0.40;;
16189;SDS011;41754;51.498;7.540;2022-12-29T00:59:34;0.50;;;0.50;;
16189;SDS011;41754;51.498;7.540;2022-12-29T01:02:02;0.85;;;0.30;;
16189;SDS011;41754;51.498;7.540;2022-12-29T01:04:31;0.30;;;0.30;;
16189;SDS011;41754;51.498;7.540;2022-12-29T01:06:59;0.50;;;0.50;;
16189;SDS011;41754;51.498;7.540;2022-12-29T01:09:27;0.30;;;0.30;;
16189;SDS011;41754;51.498;7.540;2022-12-29T01:12:13;0.50;;;0.50;;
16189;SDS011;41754;51.498;7.540;2022-12-29T01:14:40;1.27;;;0.30;;
16189;SDS011;41754;51.498;7.540;2022-12-29T01:17:08;0.45;;;0.40;;
16189;SDS011;41754;51.498;7.540;2022-12-29T01:19:38;3.03;;;0.45;;
16189;SDS011;41754;51.498;7.540;2022-12-29T01:22:06;0.38;;;0.38;;
16189;SDS011;41754;51.498;7.540;2022-12-29T01:24:34;0.20;;;0.20;;
16189;SDS011;41754;51.498;7.540;2022-12-29T01:27:02;0.30;;;0.22;;
16189;SDS011;41754;51.498;7.540;2022-12-29T01:29:30;0.30;;;0.30;;
16189;SDS011;41754;51.498;7.540;2022-12-29T01:31:58;2.83;;;0.40;;
16189;SDS011;41754;51.498;7.540;2022-12-29T01:34:25;0.30;;;0.20;;
16189;SDS011;41754;51.498;7.540;2022-12-29T01:36:55;0.30;;;0.30;;
16189;SDS011;41754;51.498;7.540;2022-12-29T01:39:23;0.87;;;0.40;;
16189;SDS011;41754;51.498;7.540;2022-12-29T01:41:51;2.40;;;0.50;;
16189;SDS011;41754;51.498;7.540;2022-12-29T01:47:23;1.33;;;0.30;;
16189;SDS011;41754;51.498;7.540;2022-12-29T01:49:54;1.50;;;0.30;;
16189;SDS011;41754;51.498;7.540;2022-12-29T01:52:26;0.28;;;0.28;;
16189;SDS011;41754;51.498;7.540;2022-12-29T01:54:57;0.22;;;0.22;;
16189;SDS011;41754;51.498;7.540;2022-12-29T01:57:26;0.20;;;0.20;;
16189;SDS011;41754;51.498;7.540;2022-12-29T01:59:56;0.35;;;0.35;;
16189;SDS011;41754;51.498;7.540;2022-12-29T02:02:38;0.10;;;0.10;;
16189;SDS011;41754;51.498;7.540;2022-12-29T02:05:10;0.30;;;0.20;;
16189;SDS011;41754;51.498;7.540;2022-12-29T02:07:40;0.17;;;0.13;;
16189;SDS011;41754;51.498;7.540;2022-12-29T02:10:09;0.40;;;0.30;;
16189;SDS011;41754;51.498;7.540;2022-12-29T02:12:37;0.38;;;0.32;;
16189;SDS011;41754;51.498;7.540;2022-12-29T02:15:05;0.55;;;0.20;;
16189;SDS011;41754;51.498;7.540;2022-12-29T02:17:41;0.10;;;0.10;;
16189;SDS011;41754;51.498;7.540;2022-12-29T02:20:28;0.30;;;0.30;;
16189;SDS011;41754;51.498;7.540;2022-12-29T02:23:12;0.40;;;0.40;;
16189;SDS011;41754;51.498;7.540;2022-12-29T02:26:02;0.30;;;0.30;;
16189;SDS011;41754;51.498;7.540;2022-12-29T02:28:48;1.65;;;0.30;;
16189;SDS011;41754;51.498;7.540;2022-12-29T02:31:27;0.32;;;0.20;;
16189;SDS011;41754;51.498;7.540;2022-12-29T02:34:01;0.20;;;0.20;;
16189;SDS011;41754;51.498;7.540;2022-12-29T02:36:37;0.40;;;0.30;;
16189;SDS011;41754;51.498;7.540;2022-12-29T02:39:10;0.20;;;0.20;;
16189;SDS011;41754;51.498;7.540;2022-12-29T02:41:42;1.03;;;0.20;;
16189;SDS011;41754;51.498;7.540;2022-12-29T02:44:16;0.63;;;0.30;;
16189;SDS011;41754;51.498;7.540;2022-12-29T02:46:47;0.20;;;0.20;;
16189;SDS011;41754;51.498;7.540;2022-12-29T02:49:19;0.25;;;0.20;;
16189;SDS011;41754;51.498;7.540;2022-12-29T02:51:52;0.20;;;0.20;;
16189;SDS011;41754;51.498;7.540;2022-12-29T02:54:23;0.20;;;0.20;;
16189;SDS011;41754;51.498;7.540;2022-12-29T02:57:12;0.52;;;0.20;;
16189;SDS011;41754;51.498;7.540;2022-12-29T02:59:43;0.20;;;0.20;;
16189;SDS011;41754;51.498;7.540;2022-12-29T03:02:17;1.65;;;0.20;;
16189;SDS011;41754;51.498;7.540;2022-12-29T03:05:05;0.20;;;0.20;;
16189;SDS011;41754;51.498;7.540;2022-12-29T03:07:42;0.20;;;0.20;;
16189;SDS011;41754;51.498;7.540;2022-12-29T03:10:15;1.05;;;0.30;;
16189;SDS011;41754;51.498;7.540;2022-12-29T03:12:52;0.50;;;0.30;;
16189;SDS011;41754;51.498;7.540;2022-12-29T03:15:42;0.45;;;0.30;;
16189;SDS011;41754;51.498;7.540;2022-12-29T03:18:33;0.70;;;0.50;;
16189;SDS011;41754;51.498;7.540;2022-12-29T03:21:06;0.32;;;0.32;;
16189;SDS011;41754;51.498;7.540;2022-12-29T03:23:36;0.40;;;0.40;;
16189;SDS011;41754;51.498;7.540;2022-12-29T03:26:06;2.55;;;1.30;;
16189;SDS011;41754;51.498;7.540;2022-12-29T03:28:39;0.45;;;0.40;;
16189;SDS011;41754;51.498;7.540;2022-12-29T03:31:14;1.80;;;0.40;;
16189;SDS011;41754;51.498;7.540;2022-12-29T03:33:44;1.08;;;0.45;;
16189;SDS011;41754;51.498;7.540;2022-12-29T03:36:13;0.22;;;0.22;;
16189;SDS011;41754;51.498;7.540;2022-12-29T03:38:47;0.40;;;0.40;;
16189;SDS011;41754;51.498;7.540;2022-12-29T03:41:19;0.80;;;0.40;;
16189;SDS011;41754;51.498;7.540;2022-12-29T03:43:50;0.82;;;0.45;;
16189;SDS011;41754;51.498;7.540;2022-12-29T03:46:18;0.35;;;0.35;;
16189;SDS011;41754;51.498;7.540;2022-12-29T03:48:47;0.57;;;0.40;;
16189;SDS011;41754;51.498;7.540;2022-12-29T03:51:15;0.45;;;0.30;;
16189;SDS011;41754;51.498;7.540;2022-12-29T03:53:44;1.05;;;0.50;;
16189;SDS011;41754;51.498;7.540;2022-12-29T03:56:11;0.50;;;0.50;;
16189;SDS011;41754;51.498;7.540;2022-12-29T03:58:39;1.48;;;0.70;;
16189;SDS011;41754;51.498;7.540;2022-12-29T04:01:14;1.27;;;0.60;;
16189;SDS011;41754;51.498;7.540;2022-12-29T04:03:43;0.32;;;0.32;;
16189;SDS011;41754;51.498;7.540;2022-12-29T04:06:13;1.70;;;0.40;;
16189;SDS011;41754;51.498;7.540;2022-12-29T04:08:51;0.28;;;0.28;;
16189;SDS011;41754;51.498;7.540;2022-12-29T04:11:20;0.50;;;0.50;;
16189;SDS011;41754;51.498;7.540;2022-12-29T04:13:51;1.60;;;0.55;;
16189;SDS011;41754;51.498;7.540;2022-12-29T04:16:22;0.40;;;0.40;;
16189;SDS011;41754;51.498;7.540;2022-12-29T04:18:50;0.57;;;0.45;;
16189;SDS011;41754;51.498;7.540;2022-12-29T04:21:20;0.98;;;0.40;;
16189;SDS011;41754;51.498;7.540;2022-12-29T04:23:48;0.43;;;0.40;;
16189;SDS011;41754;51.498;7.540;2022-12-29T04:26:16;0.65;;;0.47;;
16189;SDS011;41754;51.498;7.540;2022-12-29T04:28:53;0.52;;;0.28;;
16189;SDS011;41754;51.498;7.540;2022-12-29T04:31:33;1.00;;;0.30;;
16189;SDS011;41754;51.498;7.540;2022-12-29T04:34:00;0.35;;;0.35;;
16189;SDS011;41754;51.498;7.540;2022-12-29T04:36:30;0.32;;;0.32;;
16189;SDS011;41754;51.498;7.540;2022-12-29T04:38:58;1.15;;;0.50;;
16189;SDS011;41754;51.498;7.540;2022-12-29T04:41:26;0.43;;;0.40;;
16189;SDS011;41754;51.498;7.540;2022-12-29T04:43:54;0.70;;;0.50;;
16189;SDS011;41754;51.498;7.540;2022-12-29T04:46:37;1.48;;;0.63;;
16189;SDS011;41754;51.498;7.540;2022-12-29T04:49:16;0.28;;;0.28;;
16189;SDS011;41754;51.498;7.540;2022-12-29T04:51:53;0.20;;;0.20;;
16189;SDS011;41754;51.498;7.540;2022-12-29T04:54:21;0.30;;;0.30;;
16189;SDS011;41754;51.498;7.540;2022-12-29T04:56:57;0.30;;;0.28;;
16189;SDS011;41754;51.498;7.540;2022-12-29T04:59:25;1.73;;;0.40;;
16189;SDS011;41754;51.498;7.540;2022-12-29T05:01:56;0.73;;;0.50;;
16189;SDS011;41754;51.498;7.540;2022-12-29T05:04:24;0.40;;;0.40;;
16189;SDS011;41754;51.498;7.540;2022-12-29T05:06:53;0.52;;;0.43;;
16189;SDS011;41754;51.498;7.540;2022-12-29T05:09:21;0.88;;;0.40;;
16189;SDS011;41754;51.498;7.540;2022-12-29T05:11:50;0.57;;;0.47;;
16189;SDS011;41754;51.498;7.540;2022-12-29T05:14:18;0.95;;;0.28;;
16189;SDS011;41754;51.498;7.540;2022-12-29T05:16:46;1.75;;;0.45;;
16189;SDS011;41754;51.498;7.540;2022-12-29T05:19:14;1.00;;;0.30;;
16189;SDS011;41754;51.498;7.540;2022-12-29T05:21:44;0.25;;;0.25;;
16189;SDS011;41754;51.498;7.540;2022-12-29T05:24:13;0.52;;;0.40;;
16189;SDS011;41754;51.498;7.540;2022-12-29T05:26:43;0.45;;;0.25;;
16189;SDS011;41754;51.498;7.540;2022-12-29T05:29:34;0.43;;;0.40;;
16189;SDS011;41754;51.498;7.540;2022-12-29T05:32:02;1.02;;;0.47;;
16189;SDS011;41754;51.498;7.540;2022-12-29T05:34:30;1.08;;;0.45;;
16189;SDS011;41754;51.498;7.540;2022-12-29T05:36:58;1.75;;;0.47;;
16189;SDS011;41754;51.498;7.540;2022-12-29T05:39:28;1.48;;;0.40;;
16189;SDS011;41754;51.498;7.540;2022-12-29T05:41:59;0.80;;;0.50;;
16189;SDS011;41754;51.498;7.540;2022-12-29T05:44:56;2.90;;;0.57;;
16189;SDS011;41754;51.498;7.540;2022-12-29T05:47:44;0.28;;;0.28;;
16189;SDS011;41754;51.498;7.540;2022-12-29T05:50:30;1.98;;;0.45;;
16189;SDS011;41754;51.498;7.540;2022-12-29T05:53:07;0.82;;;0.45;;
16189;SDS011;41754;51.498;7.540;2022-12-29T05:55:37;1.33;;;0.50;;
16189;SDS011;41754;51.498;7.540;2022-12-29T05:58:13;1.20;;;0.30;;
16189;SDS011;41754;51.498;7.540;2022-12-29T06:00:42;0.45;;;0.30;;
16189;SDS011;41754;51.498;7.540;2022-12-29T06:03:10;1.95;;;0.52;;
16189;SDS011;41754;51.498;7.540;2022-12-29T06:05:40;0.82;;;0.43;;
16189;SDS011;41754;51.498;7.540;2022-12-29T06:08:08;0.73;;;0.40;;
16189;SDS011;41754;51.498;7.540;2022-12-29T06:10:36;2.38;;;0.63;;
16189;SDS011;41754;51.498;7.540;2022-12-29T06:13:06;1.00;;;0.40;;
16189;SDS011;41754;51.498;7.540;2022-12-29T06:15:38;1.60;;;0.50;;
16189;SDS011;41754;51.498;7.540;2022-12-29T06:18:07;1.77;;;0.60;;
16189;SDS011;41754;51.498;7.540;2022-12-29T06:20:44;0.40;;;0.40;;
16189;SDS011;41754;51.498;7.540;2022-12-29T06:23:14;1.95;;;0.38;;
16189;SDS011;41754;51.498;7.540;2022-12-29T06:25:44;1.25;;;0.43;;
16189;SDS011;41754;51.498;7.540;2022-12-29T06:28:11;0.63;;;0.30;;
16189;SDS011;41754;51.498;7.540;2022-12-29T06:30:39;1.08;;;0.38;;
16189;SDS011;41754;51.498;7.540;2022-12-29T06:33:07;0.52;;;0.43;;
16189;SDS011;41754;51.498;7.540;2022-12-29T06:35:35;0.75;;;0.57;;
16189;SDS011;41754;51.498;7.540;2022-12-29T06:38:03;1.05;;;0.52;;
16189;SDS011;41754;51.498;7.540;2022-12-29T06:40:32;1.17;;;0.57;;
16189;SDS011;41754;51.498;7.540;2022-12-29T06:43:11;1.25;;;0.40;;
16189;SDS011;41754;51.498;7.540;2022-12-29T06:46:02;0.98;;;0.40;;
16189;SDS011;41754;51.498;7.540;2022-12-29T06:48:30;0.75;;;0.50;;
16189;SDS011;41754;51.498;7.540;2022-12-29T06:50:58;2.13;;;0.57;;
16189;SDS011;41754;51.498;7.540;2022-12-29T06:53:26;1.52;;;0.60;;
16189;SDS011;41754;51.498;7.540;2022-12-29T06:55:54;0.70;;;0.65;;
16189;SDS011;41754;51.498;7.540;2022-12-29T06:58:24;2.00;;;0.40;;
16189;SDS011;41754;51.498;7.540;2022-12-29T07:00:52;2.28;;;0.65;;
16189;SDS011;41754;51.498;7.540;2022-12-29T07:03:19;0.38;;;0.30;;
16189;SDS011;41754;51.498;7.540;2022-12-29T07:05:47;0.73;;;0.57;;
16189;SDS011;41754;51.498;7.540;2022-12-29T07:08:15;2.60;;;0.50;;
16189;SDS011;41754;51.498;7.540;2022-12-29T07:10:43;1.08;;;0.50;;
16189;SDS011;41754;51.498;7.540;2022-12-29T07:13:10;1.77;;;0.52;;
16189;SDS011;41754;51.498;7.540;2022-12-29T07:15:39;0.75;;;0.30;;
16189;SDS011;41754;51.498;7.540;2022-12-29T07:18:07;1.65;;;0.40;;
16189;SDS011;41754;51.498;7.540;2022-12-29T07:20:35;1.58;;;0.47;;
16189;SDS011;41754;51.498;7.540;2022-12-29T07:23:03;0.95;;;0.52;;
16189;SDS011;41754;51.498;7.540;2022-12-29T07:25:31;1.40;;;0.50;;
16189;SDS011;41754;51.498;7.540;2022-12-29T07:27:59;3.17;;;0.65;;
16189;SDS011;41754;51.498;7.540;2022-12-29T07:30:26;0.38;;;0.30;;
16189;SDS011;41754;51.498;7.540;2022-12-29T07:32:56;2.17;;;0.65;;
16189;SDS011;41754;51.498;7.540;2022-12-29T07:35:24;1.75;;;0.47;;
16189;SDS011;41754;51.498;7.540;2022-12-29T07:37:52;2.25;;;0.50;;
16189;SDS011;41754;51.498;7.540;2022-12-29T07:40:19;2.10;;;0.57;;
16189;SDS011;41754;51.498;7.540;2022-12-29T07:42:47;3.10;;;0.70;;
16189;SDS011;41754;51.498;7.540;2022-12-29T07:45:24;2.00;;;0.60;;
16189;SDS011;41754;51.498;7.540;2022-12-29T07:48:03;3.92;;;0.60;;
16189;SDS011;41754;51.498;7.540;2022-12-29T07:50:33;0.90;;;0.50;;
16189;SDS011;41754;51.498;7.540;2022-12-29T07:53:01;2.33;;;0.60;;
16189;SDS011;41754;51.498;7.540;2022-12-29T07:55:29;2.05;;;0.68;;
16189;SDS011;41754;51.498;7.540;2022-12-29T07:57:57;2.28;;;0.80;;
16189;SDS011;41754;51.498;7.540;2022-12-29T08:00:25;1.25;;;0.60;;
16189;SDS011;41754;51.498;7.540;2022-12-29T08:02:53;1.95;;;0.70;;
16189;SDS011;41754;51.498;7.540;2022-12-29T08:05:22;2.78;;;0.70;;
16189;SDS011;41754;51.498;7.540;2022-12-29T08:07:50;1.48;;;0.60;;
16189;SDS011;41754;51.498;7.540;2022-12-29T08:10:18;0.85;;;0.50;;
16189;SDS011;41754;51.498;7.540;2022-12-29T08:12:46;2.45;;;0.70;;
16189;SDS011;41754;51.498;7.540;2022-12-29T08:15:13;1.63;;;0.70;;
16189;SDS011;41754;51.498;7.540;2022-12-29T08:17:41;1.63;;;0.57;;
16189;SDS011;41754;51.498;7.540;2022-12-29T08:20:09;1.95;;;0.50;;
16189;SDS011;41754;51.498;7.540;2022-12-29T08:22:39;1.65;;;0.60;;
16189;SDS011;41754;51.498;7.540;2022-12-29T08:25:07;1.00;;;0.50;;
16189;SDS011;41754;51.498;7.540;2022-12-29T08:27:35;1.80;;;0.73;;
16189;SDS011;41754;51.498;7.540;2022-12-29T08:30:04;2.08;;;0.43;;
16189;SDS011;41754;51.498;7.540;2022-12-29T08:32:33;4.93;;;0.70;;
16189;SDS011;41754;51.498;7.540;2022-12-29T08:35:00;3.20;;;0.70;;
16189;SDS011;41754;51.498;7.540;2022-12-29T08:37:28;3.65;;;0.60;;
16189;SDS011;41754;51.498;7.540;2022-12-29T08:39:58;2.28;;;0.80;;
16189;SDS011;41754;51.498;7.540;2022-12-29T08:42:29;3.00;;;0.70;;
16189;SDS011;41754;51.498;7.540;2022-12-29T08:44:58;3.53;;;1.02;;
16189;SDS011;41754;51.498;7.540;2022-12-29T08:47:26;1.58;;;0.63;;
16189;SDS011;41754;51.498;7.540;2022-12-29T08:49:54;4.53;;;0.80;;
16189;SDS011;41754;51.498;7.540;2022-12-29T08:52:22;3.03;;;0.65;;
16189;SDS011;41754;51.498;7.540;2022-12-29T08:54:50;4.03;;;0.73;;
16189;SDS011;41754;51.498;7.540;2022-12-29T08:57:21;3.70;;;0.65;;
16189;SDS011;41754;51.498;7.540;2022-12-29T09:00:04;3.13;;;0.80;;
16189;SDS011;41754;51.498;7.540;2022-12-29T09:02:33;2.95;;;0.68;;
16189;SDS011;41754;51.498;7.540;2022-12-29T09:05:01;2.00;;;0.75;;
16189;SDS011;41754;51.498;7.540;2022-12-29T09:07:29;1.75;;;0.60;;
16189;SDS011;41754;51.498;7.540;2022-12-29T09:09:57;3.08;;;0.65;;
16189;SDS011;41754;51.498;7.540;2022-12-29T09:12:26;3.03;;;0.73;;
16189;SDS011;41754;51.498;7.540;2022-12-29T09:15:01;4.82;;;0.73;;
16189;SDS011;41754;51.498;7.540;2022-12-29T09:17:29;3.70;;;0.93;;
16189;SDS011;41754;51.498;7.540;2022-12-29T09:20:10;2.30;;;0.50;;
16189;SDS011;41754;51.498;7.540;2022-12-29T09:22:39;2.88;;;0.65;;
16189;SDS011;41754;51.498;7.540;2022-12-29T09:25:07;4.40;;;0.98;;
16189;SDS011;41754;51.498;7.540;2022-12-29T09:27:37;4.15;;;1.05;;
16189;SDS011;41754;51.498;7.540;2022-12-29T09:30:05;1.92;;;0.65;;
16189;SDS011;41754;51.498;7.540;2022-12-29T09:32:35;3.58;;;0.70;;
16189;SDS011;41754;51.498;7.540;2022-12-29T09:35:10;4.78;;;1.15;;
16189;SDS011;41754;51.498;7.540;2022-12-29T09:37:38;2.92;;;0.90;;
16189;SDS011;41754;51.498;7.540;2022-12-29T09:40:06;2.10;;;1.00;;
16189;SDS011;41754;51.498;7.540;2022-12-29T09:42:38;3.58;;;1.13;;
16189;SDS011;41754;51.498;7.540;2022-12-29T09:45:10;1.88;;;0.85;;
16189;SDS011;41754;51.498;7.540;2022-12-29T09:47:42;3.88;;;1.17;;
16189;SDS011;41754;51.498;7.540;2022-12-29T09:50:14;5.18;;;1.13;;
16189;SDS011;41754;51.498;7.540;2022-12-29T09:52:48;4.47;;;1.00;;
16189;SDS011;41754;51.498;7.540;2022-12-29T09:55:19;3.17;;;1.20;;
16189;SDS011;41754;51.498;7.540;2022-12-29T09:57:52;1.75;;;0.90;;
16189;SDS011;41754;51.498;7.540;2022-12-29T10:00:22;3.70;;;0.70;;
16189;SDS011;41754;51.498;7.540;2022-12-29T10:02:51;2.65;;;0.80;;
16189;SDS011;41754;51.498;7.540;2022-12-29T10:05:30;4.68;;;0.80;;
16189;SDS011;41754;51.498;7.540;2022-12-29T10:08:05;3.97;;;1.10;;
16189;SDS011;41754;51.498;7.540;2022-12-29T10:10:43;7.03;;;1.30;;
16189;SDS011;41754;51.498;7.540;2022-12-29T10:13:26;3.70;;;0.90;;
16189;SDS011;41754;51.498;7.540;2022-12-29T10:16:01;4.50;;;1.00;;
16189;SDS011;41754;51.498;7.540;2022-12-29T10:21:32;6.50;;;1.40;;
16189;SDS011;41754;51.498;7.540;2022-12-29T10:24:09;2.42;;;0.93;;
16189;SDS011;41754;51.498;7.540;2022-12-29T10:26:39;3.38;;;0.98;;
16189;SDS011;41754;51.498;7.540;2022-12-29T10:29:13;3.92;;;0.77;;
16189;SDS011;41754;51.498;7.540;2022-12-29T10:31:44;3.60;;;1.00;;
16189;SDS011;41754;51.498;7.540;2022-12-29T10:34:15;7.53;;;1.70;;
16189;SDS011;41754;51.498;7.540;2022-12-29T10:36:47;3.08;;;0.93;;
16189;SDS011;41754;51.498;7.540;2022-12-29T10:39:18;6.20;;;1.00;;
16189;SDS011;41754;51.498;7.540;2022-12-29T10:41:49;3.70;;;1.00;;
16189;SDS011;41754;51.498;7.540;2022-12-29T10:44:20;3.15;;;0.95;;
16189;SDS011;41754;51.498;7.540;2022-12-29T10:46:53;4.65;;;0.95;;
16189;SDS011;41754;51.498;7.540;2022-12-29T10:49:23;5.35;;;0.95;;
16189;SDS011;41754;51.498;7.540;2022-12-29T10:51:52;4.45;;;1.00;;
16189;SDS011;41754;51.498;7.540;2022-12-29T10:54:23;4.20;;;1.27;;
16189;SDS011;41754;51.498;7.540;2022-12-29T10:56:54;1.95;;;1.17;;
16189;SDS011;41754;51.498;7.540;2022-12-29T10:59:27;4.30;;;1.10;;
16189;SDS011;41754;51.498;7.540;2022-12-29T11:02:00;2.10;;;0.45;;
16189;SDS011;41754;51.498;7.540;2022-12-29T11:04:35;3.50;;;0.95;;
16189;SDS011;41754;51.498;7.540;2022-12-29T11:07:11;2.33;;;0.90;;
16189;SDS011;41754;51.498;7.540;2022-12-29T11:09:42;7.53;;;0.93;;
16189;SDS011;41754;51.498;7.540;2022-12-29T11:12:22;5.82;;;1.05;;
16189;SDS011;41754;51.498;7.540;2022-12-29T11:15:06;2.78;;;0.80;;
16189;SDS011;41754;51.498;7.540;2022-12-29T11:17:43;7.28;;;1.13;;
16189;SDS011;41754;51.498;7.540;2022-12-29T11:20:29;3.83;;;1.17;;
16189;SDS011;41754;51.498;7.540;2022-12-29T11:22:59;2.22;;;0.73;;
16189;SDS011;41754;51.498;7.540;2022-12-29T11:25:27;1.42;;;0.68;;
16189;SDS011;41754;51.498;7.540;2022-12-29T11:27:55;4.20;;;0.95;;
16189;SDS011;41754;51.498;7.540;2022-12-29T11:30:27;3.95;;;0.90;;
16189;SDS011;41754;51.498;7.540;2022-12-29T11:32:55;3.22;;;0.52;;
16189;SDS011;41754;51.498;7.540;2022-12-29T11:35:30;2.75;;;1.00;;
16189;SDS011;41754;51.498;7.540;2022-12-29T11:38:00;2.60;;;0.80;;
16189;SDS011;41754;51.498;7.540;2022-12-29T11:40:29;3.40;;;0.68;;
16189;SDS011;41754;51.498;7.540;2022-12-29T11:42:58;4.57;;;0.95;;
16189;SDS011;41754;51.498;7.540;2022-12-29T11:45:31;6.82;;;1.80;;
16189;SDS011;41754;51.498;7.540;2022-12-29T11:48:01;4.35;;;1.50;;
16189;SDS011;41754;51.498;7.540;2022-12-29T11:50:36;6.22;;;1.27;;
16189;SDS011;41754;51.498;7.540;2022-12-29T11:53:07;2.67;;;0.90;;
16189;SDS011;41754;51.498;7.540;2022-12-29T11:55:42;3.53;;;0.80;;
16189;SDS011;41754;51.498;7.540;2022-12-29T11:58:18;5.45;;;0.85;;
16189;SDS011;41754;51.498;7.540;2022-12-29T12:00:47;3.25;;;1.20;;
16189;SDS011;41754;51.498;7.540;2022-12-29T12:03:17;5.93;;;0.93;;
16189;SDS011;41754;51.498;7.540;2022-12-29T12:05:47;1.80;;;0.80;;
16189;SDS011;41754;51.498;7.540;2022-12-29T12:08:19;6.75;;;1.08;;
16189;SDS011;41754;51.498;7.540;2022-12-29T12:10:51;12.30;;;1.50;;
16189;SDS011;41754;51.498;7.540;2022-12-29T12:13:25;5.50;;;1.27;;
16189;SDS011;41754;51.498;7.540;2022-12-29T12:16:00;1.83;;;0.70;;
16189;SDS011;41754;51.498;7.540;2022-12-29T12:18:33;3.25;;;1.13;;
16189;SDS011;41754;51.498;7.540;2022-12-29T12:21:08;3.45;;;0.68;;
16189;SDS011;41754;51.498;7.540;2022-12-29T12:23:43;5.30;;;1.17;;
16189;SDS011;41754;51.498;7.540;2022-12-29T12:26:18;3.55;;;0.65;;
16189;SDS011;41754;51.498;7.540;2022-12-29T12:28:48;8.27;;;1.42;;
16189;SDS011;41754;51.498;7.540;2022-12-29T12:31:24;8.93;;;1.13;;
16189;SDS011;41754;51.498;7.540;2022-12-29T12:33:57;3.28;;;0.85;;
16189;SDS011;41754;51.498;7.540;2022-12-29T12:36:34;5.75;;;1.30;;
16189;SDS011;41754;51.498;7.540;2022-12-29T12:39:11;2.85;;;1.05;;
16189;SDS011;41754;51.498;7.540;2022-12-29T12:41:45;3.90;;;0.75;;
16189;SDS011;41754;51.498;7.540;2022-12-29T12:44:18;3.67;;;0.90;;
16189;SDS011;41754;51.498;7.540;2022-12-29T12:46:58;8.73;;;1.30;;
16189;SDS011;41754;51.498;7.540;2022-12-29T12:49:42;4.50;;;1.30;;
16189;SDS011;41754;51.498;7.540;2022-12-29T12:52:30;3.17;;;0.63;;
16189;SDS011;41754;51.498;7.540;2022-12-29T12:55:04;4.40;;;1.00;;
16189;SDS011;41754;51.498;7.540;2022-12-29T12:57:42;4.28;;;0.80;;
16189;SDS011;41754;51.498;7.540;2022-12-29T13:00:16;4.07;;;0.90;;
16189;SDS011;41754;51.498;7.540;2022-12-29T13:02:49;6.22;;;1.27;;
16189;SDS011;41754;51.498;7.540;2022-12-29T13:05:26;2.65;;;0.80;;
16189;SDS011;41754;51.498;7.540;2022-12-29T13:08:06;3.28;;;1.20;;
16189;SDS011;41754;51.498;7.540;2022-12-29T13:10:45;2.67;;;1.00;;
16189;SDS011;41754;51.498;7.540;2022-12-29T13:13:29;1.95;;;0.80;;
16189;SDS011;41754;51.498;7.540;2022-12-29T13:16:09;5.05;;;1.05;;
16189;SDS011;41754;51.498;7.540;2022-12-29T13:18:44;6.35;;;0.90;;
16189;SDS011;41754;51.498;7.540;2022-12-29T13:21:19;7.88;;;1.63;;
16189;SDS011;41754;51.498;7.540;2022-12-29T13:23:55;5.43;;;1.17;;
16189;SDS011;41754;51.498;7.540;2022-12-29T13:26:27;6.35;;;1.30;;
16189;SDS011;41754;51.498;7.540;2022-12-29T13:28:57;2.88;;;1.25;;
16189;SDS011;41754;51.498;7.540;2022-12-29T13:31:30;4.95;;;0.90;;
16189;SDS011;41754;51.498;7.540;2022-12-29T13:34:03;5.55;;;1.20;;
16189;SDS011;41754;51.498;7.540;2022-12-29T13:36:40;5.68;;;1.52;;
16189;SDS011;41754;51.498;7.540;2022-12-29T13:39:11;4.38;;;1.38;;
16189;SDS011;41754;51.498;7.540;2022-12-29T13:41:47;4.47;;;1.08;;
16189;SDS011;41754;51.498;7.540;2022-12-29T13:44:17;6.25;;;1.38;;
16189;SDS011;41754;51.498;7.540;2022-12-29T13:46:47;5.47;;;1.38;;
16189;SDS011;41754;51.498;7.540;2022-12-29T13:49:19;4.28;;;1.17;;
16189;SDS011;41754;51.498;7.540;2022-12-29T13:51:48;3.85;;;0.85;;
16189;SDS011;41754;51.498;7.540;2022-12-29T13:54:22;7.38;;;1.42;;
16189;SDS011;41754;51.498;7.540;2022-12-29T13:56:55;5.03;;;1.10;;
16189;SDS011;41754;51.498;7.540;2022-12-29T13:59:30;8.52;;;1.23;;
16189;SDS011;41754;51.498;7.540;2022-12-29T14:02:09;4.57;;;1.10;;
16189;SDS011;41754;51.498;7.540;2022-12-29T14:04:56;5.03;;;1.23;;
16189;SDS011;41754;51.498;7.540;2022-12-29T14:07:26;4.05;;;1.00;;
16189;SDS011;41754;51.498;7.540;2022-12-29T14:09:55;2.05;;;1.00;;
16189;SDS011;41754;51.498;7.540;2022-12-29T14:12:34;4.15;;;1.02;;
16189;SDS011;41754;51.498;7.540;2022-12-29T14:15:05;8.18;;;1.05;;
16189;SDS011;41754;51.498;7.540;2022-12-29T14:17:44;4.90;;;1.30;;
16189;SDS011;41754;51.498;7.540;2022-12-29T14:20:18;3.00;;;1.27;;
16189;SDS011;41754;51.498;7.540;2022-12-29T14:22:57;6.30;;;0.82;;
16189;SDS011;41754;51.498;7.540;2022-12-29T14:28:23;4.28;;;1.67;;
16189;SDS011;41754;51.498;7.540;2022-12-29T14:30:52;2.45;;;1.05;;
16189;SDS011;41754;51.498;7.540;2022-12-29T14:33:21;4.60;;;1.40;;
16189;SDS011;41754;51.498;7.540;2022-12-29T14:35:51;3.97;;;1.10;;
16189;SDS011;41754;51.498;7.540;2022-12-29T14:38:21;5.20;;;0.82;;
16189;SDS011;41754;51.498;7.540;2022-12-29T14:40:50;5.55;;;1.10;;
16189;SDS011;41754;51.498;7.540;2022-12-29T14:43:25;5.72;;;1.20;;
16189;SDS011;41754;51.498;7.540;2022-12-29T14:45:55;5.75;;;1.27;;
16189;SDS011;41754;51.498;7.540;2022-12-29T14:48:29;4.15;;;1.17;;
16189;SDS011;41754;51.498;7.540;2022-12-29T14:51:17;4.35;;;1.20;;
16189;SDS011;41754;51.498;7.540;2022-12-29T14:53:47;4.72;;;1.25;;
16189;SDS011;41754;51.498;7.540;2022-12-29T14:56:16;4.82;;;1.05;;
16189;SDS011;41754;51.498;7.540;2022-12-29T14:58:46;3.50;;;1.08;;
16189;SDS011;41754;51.498;7.540;2022-12-29T15:01:20;4.82;;;1.27;;
16189;SDS011;41754;51.498;7.540;2022-12-29T15:03:51;6.18;;;1.35;;
16189;SDS011;41754;51.498;7.540;2022-12-29T15:06:23;4.90;;;0.93;;
16189;SDS011;41754;51.498;7.540;2022-12-29T15:08:54;3.55;;;0.95;;
16189;SDS011;41754;51.498;7.540;2022-12-29T15:11:30;2.42;;;0.90;;
16189;SDS011;41754;51.498;7.540;2022-12-29T15:17:02;3.78;;;0.98;;
16189;SDS011;41754;51.498;7.540;2022-12-29T15:19:37;3.13;;;0.95;;
16189;SDS011;41754;51.498;7.540;2022-12-29T15:22:07;4.95;;;1.20;;
16189;SDS011;41754;51.498;7.540;2022-12-29T15:24:40;2.92;;;0.85;;
16189;SDS011;41754;51.498;7.540;2022-12-29T15:27:10;4.57;;;0.77;;
16189;SDS011;41754;51.498;7.540;2022-12-29T15:29:41;1.52;;;0.77;;
16189;SDS011;41754;51.498;7.540;2022-12-29T15:32:15;2.45;;;0.82;;